• Join FlightAware (Why Join?)
  • Login
  • US Flag 
Rudolph Flight #1: Arrived! 
01:19PM EST


 

Airport Tracker/Info


-or-


 

Live Flight TrackerFlight Track Log ✈ FIV576 ✈ 17-Mar-2014 ✈ KBNA - KROA

Flight Track Log - Related Links

Times and Time Zones

All times are in EDT time to prevent confusion due to time zone crossing. See the FIV576 flight status page for this flight to view local times or setup timezone preferences in your user account.

Time Position Orientation Groundspeed Altitude Reporting Facility
EDT Latitude Longitude Course Direction KTS MPH feet Rate Location/Type
11:15AM 36.1167 -86.6833 22° Northeast 170 196 1,400  Level Nashville TRACON
11:16AM 36.1500 -86.6667 20° North 214 246 3,500 2,280 Climbing Nashville TRACON
11:17AM 36.2039 -86.6550 10° North 215 247 4,800 1,320 Climbing Memphis Center
11:18AM 36.2064 -86.5775 88° East 235 270 6,100 600 Climbing Memphis Center
11:19AM 36.1806 -86.4900 110° East 261 300 6,100 1,440 Level Memphis Center
11:20AM 36.1550 -86.3972 109° East 277 319 9,100 3,120 Climbing Memphis Center
11:21AM 36.1258 -86.2839 108° East 291 335 12,500 3,000 Climbing Memphis Center
11:22AM 36.0978 -86.1778 108° East 312 359 15,300 2,760 Climbing Memphis Center
11:23AM 36.0689 -86.0664 108° East 331 381 18,300 2,460 Climbing Memphis Center
11:24AM 36.0597 -85.9431 95° East 355 409 20,400 2,700 Climbing Memphis Center
11:25AM 36.0533 -85.8156 94° East 367 422 23,900 3,000 Climbing Memphis Center
11:26AM 36.0444 -85.6931 95° East 362 417 26,600 2,460 Climbing Memphis Center
11:27AM 36.0342 -85.5692 96° East 355 409 28,900 1,320 Climbing Atlanta Center
11:28AM 36.0233 -85.4250 95° East 380 437 29,200 660 Climbing Atlanta Center
11:29AM 36.0128 -85.2531 94° East 427 491 30,300 900 Climbing Atlanta Center
11:30AM 35.9997 -85.0858 95° East 460 529 31,000 300 Climbing Atlanta Center
11:31AM 35.9883 -84.9139 95° East 486 559 31,000  Level Atlanta Center
11:32AM 35.9728 -84.7392 96° East 503 579 31,000  Level Atlanta Center
11:33AM 35.9592 -84.5647 95° East 503 579 31,000  Level Atlanta Center
11:34AM 35.9453 -84.3900 96° East 503 579 31,000  Level Atlanta Center
11:35AM 35.9331 -84.2489 96° East 510 587 31,000  Level Atlanta Center
11:36AM 35.9164 -84.0592 96° East 510 587 31,000  Level Atlanta Center
11:37AM 35.9164 -83.8772 90° East 516 594 31,000  Level Atlanta Center
11:38AM 35.9786 -83.6975 67° East 533 613 31,000  Level Atlanta Center
11:39AM 36.0508 -83.5175 64° Northeast 549 632 31,000  Level Atlanta Center
11:40AM 36.1189 -83.3394 65° Northeast 564 649 31,000  Level Atlanta Center
11:41AM 36.1867 -83.1614 65° Northeast 569 655 31,000 -60 Level Atlanta Center
11:42AM 36.2539 -82.9831 65° Northeast 569 655 30,900 -540 Descending Atlanta Center
11:43AM 36.3192 -82.8122 65° Northeast 559 643 30,000 -660 Descending Atlanta Center
11:44AM 36.3861 -82.6383 64° Northeast 548 631 29,600 -960 Descending Atlanta Center
11:45AM 36.4586 -82.4383 66° East 559 643 28,100 -1,500 Descending Atlanta Center
11:46AM 36.5272 -82.2614 64° Northeast 565 650 26,600 -1,500 Descending Atlanta Center
11:47AM 36.5933 -82.0814 65° Northeast 565 650 25,200 -1,440 Descending Atlanta Center
11:48AM 36.6550 -81.9142 65° Northeast 541 623 23,800 -1,320 Descending Atlanta Center
11:49AM 36.7128 -81.7547 66° East 511 588 22,600 -1,500 Descending Atlanta Center
11:50AM 36.7661 -81.6081 66° East 476 548 20,900 -1,740 Descending Atlanta Center
11:51AM 36.8056 -81.4928 67° East 432 497 19,200 -1,860 Descending Atlanta Center
11:52AM 36.8528 -81.3669 65° Northeast 403 464 17,200 -1,980 Descending Atlanta Center
11:53AM 36.9000 -81.2328 66° East 403 464 15,300 -1,860 Descending Atlanta Center
11:54AM 36.9469 -81.1067 65° Northeast 403 464 13,500 -2,100 Descending Atlanta Center
11:55AM 36.9958 -80.9669 66° East 403 464 11,100 -840 Descending Atlanta Center
11:59AM 37.1489 -80.4933 58° Northeast 307 353 9,000 -840 Descending Washington Center
12:04PM 37.2700 -80.1200 58° Northeast 171 197 3,400 -1,200 Descending Washington Center
12:05PM 37.3255 -79.9754 58° Northeast  Level Estimated
12:08PM 37.3167 -79.9667 58° Northeast  Level FlightAware Approximate